createdAt,value
2022-11-05T00:01:53.858Z,100730.59
2022-11-05T00:04:38.696Z,100724.44
2022-11-05T00:07:31.791Z,100724.34
2022-11-05T00:10:00.810Z,100732.66
2022-11-05T00:12:45.868Z,100725.34
2022-11-05T00:15:30.577Z,100735.28
2022-11-05T00:17:56.821Z,100743.56
2022-11-05T00:20:23.121Z,100738.69
2022-11-05T00:23:08.133Z,100744.19
2022-11-05T00:25:36.972Z,100750.50
2022-11-05T00:28:04.045Z,100743.19
2022-11-05T00:30:30.584Z,100759.50
2022-11-05T00:33:00.930Z,100756.59
2022-11-05T00:35:27.506Z,100755.69
2022-11-05T00:37:54.087Z,100756.44
2022-11-05T00:40:20.496Z,100755.53
2022-11-05T00:43:05.726Z,100760.19
2022-11-05T00:45:32.006Z,100767.66
2022-11-05T00:48:17.001Z,100771.94
2022-11-05T00:50:43.420Z,100761.88
2022-11-05T00:53:10.135Z,100765.38
2022-11-05T00:55:38.209Z,100771.31
2022-11-05T00:58:06.498Z,100769.59
2022-11-05T01:00:34.702Z,100775.88
2022-11-05T01:03:02.096Z,100768.22
2022-11-05T01:05:28.932Z,100776.50
2022-11-05T01:07:55.497Z,100777.19
2022-11-05T01:10:22.719Z,100767.53
2022-11-05T01:12:49.259Z,100786.63
2022-11-05T01:15:16.315Z,100783.72
2022-11-05T01:17:42.610Z,100789.22
2022-11-05T01:20:09.349Z,100786.31
2022-11-05T01:22:35.849Z,100788.63
2022-11-05T01:25:02.194Z,100793.31
2022-11-05T01:27:28.944Z,100794.00
2022-11-05T01:29:55.236Z,100791.09
2022-11-05T01:32:21.938Z,100794.22
2022-11-05T01:34:48.403Z,100797.72
2022-11-05T01:37:14.653Z,100806.44
2022-11-05T01:39:40.918Z,100801.22
2022-11-05T01:42:33.249Z,100802.38
2022-11-05T01:45:17.417Z,100802.28
2022-11-05T01:47:49.361Z,100806.94
2022-11-05T01:50:34.422Z,100804.47
2022-11-05T01:53:04.662Z,100814.25
2022-11-05T01:55:35.334Z,100818.56
2022-11-05T01:58:02.840Z,100822.03
2022-11-05T02:00:29.201Z,100817.50
2022-11-05T02:02:55.683Z,100828.22
2022-11-05T02:05:23.262Z,100836.91
2022-11-05T02:07:51.109Z,100827.28
2022-11-05T02:10:20.388Z,100830.41
2022-11-05T02:12:48.237Z,100829.56
2022-11-05T02:15:16.812Z,100827.16
2022-11-05T02:17:46.085Z,100831.47
2022-11-05T02:20:18.658Z,100833.41
2022-11-05T02:22:47.628Z,100830.97
2022-11-05T02:25:32.240Z,100828.56
2022-11-05T02:28:10.729Z,100834.81
2022-11-05T02:30:55.526Z,100833.53
2022-11-05T02:33:40.827Z,100839.00
2022-11-05T02:36:07.267Z,100846.91
2022-11-05T02:38:52.100Z,100845.59
2022-11-05T02:41:30.212Z,100850.72
2022-11-05T02:44:06.931Z,100851.84
2022-11-05T02:46:36.020Z,100855.00
2022-11-05T02:49:24.496Z,100851.75
2022-11-05T02:51:58.328Z,100854.88
2022-11-05T02:54:29.032Z,100842.47
2022-11-05T02:56:56.528Z,100850.34
2022-11-05T02:59:22.779Z,100844.31
2022-11-05T03:01:49.937Z,100853.03
2022-11-05T03:04:17.630Z,100860.06
2022-11-05T03:06:47.110Z,100850.91
2022-11-05T03:09:32.353Z,100855.19
2022-11-05T03:12:05.412Z,100851.94
2022-11-05T03:14:42.078Z,100853.09
2022-11-05T03:17:18.179Z,100857.38
2022-11-05T03:20:05.032Z,100862.50
2022-11-05T03:22:35.160Z,100858.41
2022-11-05T03:25:05.873Z,100863.53
2022-11-05T03:27:35.211Z,100865.00
2022-11-05T03:30:10.044Z,100865.38
2022-11-05T03:32:39.510Z,100861.78
2022-11-05T03:35:10.598Z,100865.38
2022-11-05T03:37:39.797Z,100866.53
2022-11-05T03:40:07.393Z,100864.56
2022-11-05T03:42:35.748Z,100871.28
2022-11-05T03:45:05.495Z,100871.28
2022-11-05T03:47:35.225Z,100868.81
2022-11-05T03:50:15.544Z,100881.94
2022-11-05T03:52:47.012Z,100879.50
2022-11-05T03:55:13.591Z,100879.06
2022-11-05T03:57:43.244Z,100876.59
2022-11-05T04:00:10.709Z,100878.91
2022-11-05T04:02:37.500Z,100877.97
2022-11-05T04:05:04.135Z,100876.69
2022-11-05T04:07:49.055Z,100878.19
2022-11-05T04:10:34.270Z,100891.59
2022-11-05T04:13:19.516Z,100894.25
2022-11-05T04:16:04.924Z,100892.50
2022-11-05T04:18:31.205Z,100895.13
2022-11-05T04:21:16.267Z,100891.06
2022-11-05T04:24:01.747Z,100902.41
2022-11-05T04:26:30.504Z,100903.91
2022-11-05T04:29:15.546Z,100898.69
2022-11-05T04:31:41.995Z,100902.59
2022-11-05T04:34:08.423Z,100907.03
2022-11-05T04:36:35.096Z,100905.38
2022-11-05T04:39:01.573Z,100906.22
2022-11-05T04:41:28.001Z,100901.78
2022-11-05T04:43:54.460Z,100908.16
2022-11-05T04:46:20.769Z,100898.69
2022-11-05T04:48:47.186Z,100901.13
2022-11-05T04:51:13.516Z,100905.06
2022-11-05T04:53:39.777Z,100901.13
2022-11-05T04:56:10.500Z,100909.13
2022-11-05T04:58:40.753Z,100906.34
2022-11-05T05:01:11.236Z,100904.03
2022-11-05T05:03:37.688Z,100900.91
2022-11-05T05:06:04.357Z,100904.50
2022-11-05T05:08:30.662Z,100913.34
2022-11-05T05:11:03.470Z,100908.59
2022-11-05T05:13:29.927Z,100905.81
2022-11-05T05:15:57.624Z,100908.25
2022-11-05T05:18:26.309Z,100912.66
2022-11-05T05:21:15.783Z,100910.22
2022-11-05T05:23:42.350Z,100913.00
2022-11-05T05:26:08.891Z,100912.53
2022-11-05T05:28:35.432Z,100922.00
2022-11-05T05:31:04.083Z,100929.09
2022-11-05T05:33:30.542Z,100931.38
2022-11-05T05:35:57.250Z,100926.50
2022-11-05T05:38:23.895Z,100937.97
2022-11-05T05:40:51.496Z,100934.72
2022-11-05T05:43:18.196Z,100943.72
2022-11-05T05:45:44.467Z,100956.84
2022-11-05T05:48:10.694Z,100952.44
2022-11-05T05:50:36.979Z,100952.44
2022-11-05T05:53:03.663Z,100950.44
2022-11-05T05:55:29.902Z,100947.66
2022-11-05T05:57:56.344Z,100958.81
2022-11-05T06:00:22.651Z,100951.25
2022-11-05T06:02:50.585Z,100957.66
2022-11-05T06:05:16.880Z,100965.19
2022-11-05T06:07:43.095Z,100963.22
2022-11-05T06:10:09.448Z,100972.06
2022-11-05T06:12:35.733Z,100977.63
2022-11-05T06:15:02.365Z,100969.59
2022-11-05T06:17:28.594Z,100975.66
2022-11-05T06:19:54.964Z,100969.28
2022-11-05T06:22:22.487Z,100973.22
2022-11-05T06:24:48.916Z,100980.72
2022-11-05T06:27:15.349Z,100985.97
2022-11-05T06:29:41.554Z,100980.72
2022-11-05T06:32:08.200Z,100987.13
2022-11-05T06:34:34.797Z,100985.47
2022-11-05T06:37:01.252Z,100988.25
2022-11-05T06:39:27.574Z,100989.41
2022-11-05T06:44:40.267Z,100987.78
2022-11-05T06:47:06.766Z,100986.97
2022-11-05T06:49:33.180Z,100995.31
2022-11-05T06:51:59.464Z,101012.03
2022-11-05T06:54:25.740Z,101012.03
2022-11-05T06:56:52.006Z,101017.59
2022-11-05T06:59:18.218Z,101022.34
2022-11-05T07:01:44.690Z,101027.56
2022-11-05T07:04:14.205Z,101030.34
2022-11-05T07:06:40.638Z,101027.56
2022-11-05T07:09:06.904Z,101030.81
2022-11-05T07:11:33.390Z,101035.25
2022-11-05T07:14:01.099Z,101033.28
2022-11-05T07:16:27.520Z,101030.16
2022-11-05T07:18:55.819Z,101043.72
2022-11-05T07:21:22.149Z,101039.81
2022-11-05T07:23:48.751Z,101048.63
2022-11-05T07:26:15.014Z,101041.44
2022-11-05T07:28:41.375Z,101048.28
2022-11-05T07:31:10.052Z,101044.03
2022-11-05T07:33:36.874Z,101053.34
2022-11-05T07:36:03.542Z,101052.63
2022-11-05T07:38:29.830Z,101062.78
2022-11-05T07:41:00.217Z,101052.13
2022-11-05T07:43:26.490Z,101053.09
2022-11-05T07:45:52.996Z,101061.28
2022-11-05T07:48:20.826Z,101065.00
2022-11-05T07:50:51.110Z,101072.84
2022-11-05T07:53:17.417Z,101066.25
2022-11-05T07:55:45.978Z,101071.63
2022-11-05T07:58:12.380Z,101067.13
2022-11-05T08:00:39.113Z,101066.09
2022-11-05T08:03:09.002Z,101071.97
2022-11-05T08:05:36.794Z,101076.16
2022-11-05T08:08:03.619Z,101069.22
2022-11-05T08:10:29.913Z,101069.50
2022-11-05T08:12:56.472Z,101064.53
2022-11-05T08:15:23.711Z,101065.94
2022-11-05T08:17:50.405Z,101076.56
2022-11-05T08:20:16.755Z,101074.38
2022-11-05T08:22:43.619Z,101073.81
2022-11-05T08:25:10.397Z,101086.34
2022-11-05T08:27:37.120Z,101075.47
2022-11-05T08:30:04.676Z,101084.06
2022-11-05T08:32:30.905Z,101082.72
2022-11-05T08:34:57.333Z,101081.38
2022-11-05T08:37:23.754Z,101081.59
2022-11-05T08:39:50.056Z,101082.22
2022-11-05T08:42:16.412Z,101083.25
2022-11-05T08:44:42.641Z,101081.88
2022-11-05T08:47:09.063Z,101084.91
2022-11-05T08:49:35.401Z,101091.88
2022-11-05T08:52:01.742Z,101086.06
2022-11-05T08:54:28.590Z,101098.31
2022-11-05T08:56:55.015Z,101095.72
2022-11-05T08:59:21.488Z,101099.59
2022-11-05T09:01:50.696Z,101090.59
2022-11-05T09:04:17.237Z,101098.41
2022-11-05T09:06:46.055Z,101105.03
2022-11-05T09:09:12.292Z,101092.44
2022-11-05T09:12:10.096Z,101104.22
2022-11-05T09:14:27.178Z,101100.00
2022-11-05T09:16:53.523Z,101101.75
2022-11-05T09:19:19.889Z,101113.16
2022-11-05T09:21:46.103Z,101105.34
2022-11-05T09:24:12.310Z,101110.78
2022-11-05T09:26:38.603Z,101110.22
2022-11-05T09:29:04.916Z,101111.59
2022-11-05T09:31:31.579Z,101117.72
2022-11-05T09:33:57.932Z,101108.72
2022-11-05T09:36:24.358Z,101116.88
2022-11-05T09:38:50.630Z,101115.00
2022-11-05T09:41:26.951Z,101111.94
2022-11-05T09:44:04.789Z,101117.28
2022-11-05T09:46:40.837Z,101113.06
2022-11-05T09:49:12.287Z,101122.00
2022-11-05T09:51:40.647Z,101124.56
2022-11-05T09:54:06.950Z,101119.13
2022-11-05T09:56:34.760Z,101120.53
2022-11-05T09:59:02.978Z,101115.47
2022-11-05T10:01:31.906Z,101120.81
2022-11-05T10:03:59.873Z,101117.41
2022-11-05T10:06:27.070Z,101117.50
2022-11-05T10:09:14.763Z,101119.22
2022-11-05T10:11:53.782Z,101125.00
2022-11-05T10:14:43.817Z,101122.66
2022-11-05T10:17:10.051Z,101123.56
2022-11-05T10:19:42.080Z,101126.81
2022-11-05T10:22:13.208Z,101128.91
2022-11-05T10:24:41.624Z,101119.75
2022-11-05T10:27:11.184Z,101121.03
2022-11-05T10:29:37.623Z,101135.94
2022-11-05T10:32:05.730Z,101134.88
2022-11-05T10:34:33.666Z,101130.97
2022-11-05T10:37:00.220Z,101132.69
2022-11-05T10:39:27.851Z,101127.97
2022-11-05T10:41:54.171Z,101131.31
2022-11-05T10:44:31.507Z,101131.47
2022-11-05T10:47:06.299Z,101128.88
2022-11-05T10:49:42.450Z,101127.81
2022-11-05T10:52:21.493Z,101127.63
2022-11-05T10:54:48.872Z,101132.22
2022-11-05T10:57:29.226Z,101123.63
2022-11-05T11:00:18.230Z,101132.28
2022-11-05T11:02:47.289Z,101122.47
2022-11-05T11:05:22.448Z,101123.06
2022-11-05T11:08:21.682Z,101126.09
2022-11-05T11:10:48.093Z,101126.72
2022-11-05T11:13:20.561Z,101127.41
2022-11-05T11:15:46.899Z,101130.91
2022-11-05T11:18:26.433Z,101127.97
2022-11-05T11:20:52.868Z,101118.91
2022-11-05T11:23:20.293Z,101123.09
2022-11-05T11:25:48.008Z,101131.22
2022-11-05T11:28:20.207Z,101127.22
2022-11-05T11:30:47.982Z,101124.41
2022-11-05T11:33:23.949Z,101121.97
2022-11-05T11:35:50.488Z,101124.72
2022-11-05T11:38:17.201Z,101121.88
2022-11-05T11:40:44.109Z,101119.78
2022-11-05T11:43:30.532Z,101123.78
2022-11-05T11:46:03.784Z,101121.72
2022-11-05T11:48:34.478Z,101130.06
2022-11-05T11:51:15.356Z,101135.28
2022-11-05T11:53:41.608Z,101131.59
2022-11-05T11:56:18.715Z,101128.69
2022-11-05T11:58:45.042Z,101121.00
2022-11-05T12:01:32.172Z,101128.16
2022-11-05T12:04:09.605Z,101128.09
2022-11-05T12:07:02.667Z,101125.66
2022-11-05T12:09:49.748Z,101132.84
2022-11-05T12:12:17.822Z,101132.41
2022-11-05T12:14:56.509Z,101139.22
2022-11-05T12:17:23.187Z,101138.41
2022-11-05T12:20:01.252Z,101131.22
2022-11-05T12:22:36.774Z,101132.47
2022-11-05T12:25:13.156Z,101121.31
2022-11-05T12:27:58.475Z,101113.84
2022-11-05T12:30:37.941Z,101118.00
2022-11-05T12:33:15.263Z,101115.72
2022-11-05T12:35:54.842Z,101119.88
2022-11-05T12:38:33.213Z,101119.53
2022-11-05T12:41:15.468Z,101114.34
2022-11-05T12:43:47.775Z,101117.63
2022-11-05T12:46:40.554Z,101112.41
2022-11-05T12:49:30.765Z,101104.41
2022-11-05T12:51:59.901Z,101105.25
2022-11-05T12:54:26.195Z,101106.88
2022-11-05T12:57:01.394Z,101110.88
2022-11-05T12:59:36.403Z,101109.22
2022-11-05T13:02:02.888Z,101107.59
2022-11-05T13:04:35.865Z,101100.75
2022-11-05T13:07:04.117Z,101098.28
2022-11-05T13:09:41.493Z,101098.69
2022-11-05T13:12:13.098Z,101096.25
2022-11-05T13:14:45.285Z,101095.44
2022-11-05T13:17:14.752Z,101093.81
2022-11-05T13:19:46.480Z,101084.16
2022-11-05T13:22:31.908Z,101083.69
2022-11-05T13:25:01.624Z,101083.28
2022-11-05T13:27:40.507Z,101084.00
2022-11-05T13:30:09.591Z,101101.25
2022-11-05T13:32:42.060Z,101089.94
2022-11-05T13:35:15.512Z,101088.31
2022-11-05T13:38:02.026Z,101092.75
2022-11-05T13:40:41.280Z,101080.28
2022-11-05T13:43:16.171Z,101085.91
2022-11-05T13:45:42.419Z,101084.28
2022-11-05T13:48:20.921Z,101081.09
2022-11-05T13:50:56.288Z,101074.66
2022-11-05T13:53:31.877Z,101088.31
2022-11-05T13:56:10.642Z,101091.13
2022-11-05T13:58:49.678Z,101089.94
2022-11-05T14:01:27.844Z,101090.75
2022-11-05T14:03:55.793Z,101077.09
2022-11-05T14:06:24.152Z,101077.91
2022-11-05T14:08:51.427Z,101070.28
2022-11-05T14:11:22.528Z,101073.91
2022-11-05T14:13:51.398Z,101071.09
2022-11-05T14:16:19.397Z,101068.28
2022-11-05T14:18:53.147Z,101078.72
2022-11-05T14:21:25.331Z,101079.91
2022-11-05T14:24:10.639Z,101077.47
2022-11-05T14:26:36.916Z,101073.41
2022-11-05T14:29:03.147Z,101063.75
2022-11-05T14:31:54.332Z,101072.53
2022-11-05T14:34:19.277Z,101064.03
2022-11-05T14:37:05.801Z,101063.16
2022-11-05T14:39:32.580Z,101063.47
2022-11-05T14:42:37.439Z,101067.38
2022-11-05T14:45:22.401Z,101066.09
2022-11-05T14:47:55.422Z,101066.75
2022-11-05T14:50:21.712Z,101067.06
2022-11-05T14:52:53.951Z,101056.94
2022-11-05T14:55:26.244Z,101046.41
2022-11-05T14:57:52.655Z,101047.88
2022-11-05T15:00:28.068Z,101039.75
2022-11-05T15:03:00.823Z,101042.84
2022-11-05T15:05:37.214Z,101048.78
2022-11-05T15:08:21.958Z,101049.06
2022-11-05T15:10:49.095Z,101044.56
2022-11-05T15:13:25.559Z,101052.09
2022-11-05T15:15:52.456Z,101050.44
2022-11-05T15:18:29.269Z,101049.16
2022-11-05T15:20:57.391Z,101050.25
2022-11-05T15:23:25.173Z,101054.16
2022-11-05T15:26:11.586Z,101046.84
2022-11-05T15:28:45.935Z,101049.94
2022-11-05T15:31:13.076Z,101060.25
2022-11-05T15:33:40.729Z,101059.00
2022-11-05T15:36:11.062Z,101062.53
2022-11-05T15:38:38.135Z,101067.72
2022-11-05T15:41:17.242Z,101064.44
2022-11-05T15:43:48.209Z,101061.22
2022-11-05T15:46:16.049Z,101060.75
2022-11-05T15:48:45.498Z,101059.50
2022-11-05T15:51:13.044Z,101062.69
2022-11-05T15:54:02.239Z,101064.59
2022-11-05T15:56:33.983Z,101068.91
2022-11-05T15:59:00.253Z,101078.06
2022-11-05T16:01:28.053Z,101075.63
2022-11-05T16:03:56.621Z,101074.38
2022-11-05T16:08:50.257Z,101071.94
2022-11-05T16:11:24.995Z,101081.81
2022-11-05T16:13:51.860Z,101063.28
2022-11-05T16:16:18.162Z,101073.59
2022-11-05T16:18:45.458Z,101079.47
2022-11-05T16:21:23.185Z,101076.50
2022-11-05T16:23:55.112Z,101073.34
2022-11-05T16:27:02.319Z,101068.34
2022-11-05T16:29:32.074Z,101074.31
2022-11-05T16:32:02.210Z,101070.59
2022-11-05T16:34:41.355Z,101068.06
2022-11-05T16:37:13.492Z,101072.84
2022-11-05T16:39:40.478Z,101059.22
2022-11-05T16:42:33.058Z,101052.25
2022-11-05T16:44:59.738Z,101057.50
2022-11-05T16:47:26.475Z,101057.88
2022-11-05T16:49:52.972Z,101059.00
2022-11-05T16:52:19.298Z,101058.56
2022-11-05T16:54:45.654Z,101064.53
2022-11-05T16:57:27.503Z,101066.06
2022-11-05T16:59:55.149Z,101066.53
2022-11-05T17:02:22.053Z,101065.69
2022-11-05T17:04:48.630Z,101064.44
2022-11-05T17:07:15.461Z,101061.16
2022-11-05T17:09:43.385Z,101055.56
2022-11-05T17:12:13.154Z,101067.13
2022-11-05T17:14:39.702Z,101061.53
2022-11-05T17:17:06.861Z,101064.72
2022-11-05T17:19:34.342Z,101070.31
2022-11-05T17:22:00.708Z,101067.88
2022-11-05T17:24:27.068Z,101071.00
2022-11-05T17:26:53.495Z,101066.59
2022-11-05T17:29:19.836Z,101058.91
2022-11-05T17:31:46.220Z,101062.50
2022-11-05T17:34:12.988Z,101069.28
2022-11-05T17:36:39.517Z,101066.84
2022-11-05T17:39:05.926Z,101055.22
2022-11-05T17:41:32.310Z,101060.34
2022-11-05T17:43:58.682Z,101062.34
2022-11-05T17:46:25.053Z,101053.84
2022-11-05T17:48:51.572Z,101059.81
2022-11-05T17:51:19.802Z,101060.97
2022-11-05T17:53:52.111Z,101054.56
2022-11-05T17:56:32.246Z,101054.91
2022-11-05T17:59:00.785Z,101053.75
2022-11-05T18:01:35.686Z,101062.88
2022-11-05T18:04:08.275Z,101057.72
2022-11-05T18:06:39.734Z,101058.88
2022-11-05T18:09:07.413Z,101060.88
2022-11-05T18:11:37.189Z,101060.06
2022-11-05T18:14:03.872Z,101063.31
2022-11-05T18:16:30.722Z,101057.72
2022-11-05T18:18:57.278Z,101050.13
2022-11-05T18:21:23.729Z,101060.97
2022-11-05T18:23:52.391Z,101061.78
2022-11-05T18:26:19.332Z,101065.41
2022-11-05T18:28:46.334Z,101066.22
2022-11-05T18:31:20.805Z,101069.38
2022-11-05T18:33:50.880Z,101071.81
2022-11-05T18:36:21.149Z,101075.41
2022-11-05T18:38:48.652Z,101072.25
2022-11-05T18:41:15.387Z,101070.28
2022-11-05T18:43:42.249Z,101062.69
2022-11-05T18:46:29.291Z,101067.50
2022-11-05T18:48:59.559Z,101070.72
2022-11-05T18:51:26.549Z,101063.50
2022-11-05T18:53:54.509Z,101066.31
2022-11-05T18:56:21.458Z,101069.09
2022-11-05T18:58:47.886Z,101065.50
2022-11-05T19:01:16.578Z,101061.41
2022-11-05T19:03:43.524Z,101061.41
2022-11-05T19:06:10.238Z,101061.41
2022-11-05T19:08:37.069Z,101059.81
2022-11-05T19:11:09.753Z,101061.78
2022-11-05T19:13:36.445Z,101057.81
2022-11-05T19:16:08.097Z,101057.38
2022-11-05T19:18:35.066Z,101057.00
2022-11-05T19:21:01.973Z,101058.19
2022-11-05T19:23:28.328Z,101054.56
2022-11-05T19:25:54.873Z,101052.13
2022-11-05T19:28:21.471Z,101052.13
2022-11-05T19:30:47.922Z,101058.06
2022-11-05T19:33:14.326Z,101058.06
2022-11-05T19:35:41.789Z,101065.66
2022-11-05T19:38:08.120Z,101067.28
2022-11-05T19:40:36.598Z,101073.25
2022-11-05T19:43:03.021Z,101077.28
2022-11-05T19:45:44.018Z,101077.28
2022-11-05T19:48:16.154Z,101076.47
2022-11-05T19:50:45.256Z,101074.50
2022-11-05T19:53:11.749Z,101074.50
2022-11-05T19:55:41.807Z,101075.31
2022-11-05T19:58:08.911Z,101074.16
2022-11-05T20:00:35.450Z,101062.16
2022-11-05T20:03:02.508Z,101061.31
2022-11-05T20:05:28.889Z,101062.16
2022-11-05T20:07:55.784Z,101063.31
2022-11-05T20:10:22.275Z,101068.09
2022-11-05T20:12:48.990Z,101070.88
2022-11-05T20:15:15.353Z,101063.66
2022-11-05T20:17:41.739Z,101059.25
2022-11-05T20:20:08.574Z,101048.06
2022-11-05T20:22:34.918Z,101051.19
2022-11-05T20:25:01.261Z,101062.38
2022-11-05T20:27:28.569Z,101057.63
2022-11-05T20:29:55.945Z,101062.38
2022-11-05T20:32:22.813Z,101059.97
2022-11-05T20:34:49.171Z,101062.75
2022-11-05T20:37:15.558Z,101065.91
2022-11-05T20:39:41.950Z,101068.72
2022-11-05T20:42:08.259Z,101071.03
2022-11-05T20:44:34.582Z,101073.50
2022-11-05T20:47:01.161Z,101073.84
2022-11-05T20:49:27.590Z,101066.63
2022-11-05T20:51:55.967Z,101067.44
2022-11-05T20:54:22.501Z,101060.69
2022-11-05T20:56:48.979Z,101063.81
2022-11-05T20:59:15.503Z,101062.19
2022-11-05T21:01:42.069Z,101050.22
2022-11-05T21:04:08.456Z,101044.59
2022-11-05T21:06:35.982Z,101051.81
2022-11-05T21:09:03.989Z,101044.59
2022-11-05T21:11:50.405Z,101046.22
2022-11-05T21:14:16.836Z,101055.44
2022-11-05T21:16:43.321Z,101071.41
2022-11-05T21:19:09.773Z,101080.59
2022-11-05T21:21:40.921Z,101084.22
2022-11-05T21:24:09.199Z,101087.00
2022-11-05T21:26:35.554Z,101081.91
2022-11-05T21:29:02.104Z,101080.28
2022-11-05T21:31:28.644Z,101077.09
2022-11-05T21:33:55.443Z,101071.16
2022-11-05T21:36:22.282Z,101068.72
2022-11-05T21:38:48.567Z,101070.69
2022-11-05T21:41:15.682Z,101066.28
2022-11-05T21:43:42.720Z,101062.19
2022-11-05T21:46:12.198Z,101044.97
2022-11-05T21:48:39.305Z,101046.94
2022-11-05T21:51:24.678Z,101040.09
2022-11-05T21:54:09.555Z,101048.03
2022-11-05T21:56:54.864Z,101037.56
2022-11-05T21:59:43.517Z,101036.25
2022-11-05T22:02:13.203Z,101033.38
2022-11-05T22:04:42.309Z,101034.91
2022-11-05T22:07:10.920Z,101040.06
2022-11-05T22:09:37.390Z,101034.00
2022-11-05T22:12:04.600Z,101024.09
2022-11-05T22:14:31.996Z,101020.81
2022-11-05T22:16:58.838Z,101018.38
2022-11-05T22:19:26.167Z,101019.94
2022-11-05T22:21:53.086Z,101028.22
2022-11-05T22:24:20.718Z,101017.72
2022-11-05T22:26:48.010Z,101025.31
2022-11-05T22:29:14.525Z,101020.88
2022-11-05T22:31:41.265Z,101017.63
2022-11-05T22:34:11.603Z,101016.00
2022-11-05T22:36:38.177Z,101017.53
2022-11-05T22:39:05.406Z,101016.25
2022-11-05T22:41:34.136Z,101011.03
2022-11-05T22:44:00.549Z,101015.00
2022-11-05T22:46:27.332Z,101006.13
2022-11-05T22:48:53.915Z,101013.72
2022-11-05T22:51:22.974Z,101007.63
2022-11-05T22:53:50.031Z,101018.81
2022-11-05T22:56:20.117Z,101015.53
2022-11-05T22:58:47.294Z,101004.03
2022-11-05T23:01:15.714Z,101007.63
2022-11-05T23:03:43.783Z,100998.78
2022-11-05T23:06:33.000Z,100989.59
2022-11-05T23:09:19.192Z,100988.06
2022-11-05T23:11:50.126Z,100996.78
2022-11-05T23:14:16.665Z,100992.00
2022-11-05T23:17:02.461Z,100984.81
2022-11-05T23:19:48.511Z,100997.97
2022-11-05T23:22:45.266Z,100991.13
2022-11-05T23:25:17.116Z,100994.72
2022-11-05T23:27:45.368Z,100991.47
2022-11-05T23:30:18.292Z,101000.56
2022-11-05T23:32:45.001Z,100995.31
2022-11-05T23:35:11.779Z,100989.66
2022-11-05T23:37:57.003Z,100992.78
2022-11-05T23:40:51.683Z,101000.97
2022-11-05T23:43:36.739Z,100992.56
2022-11-05T23:46:21.957Z,100994.91
2022-11-05T23:48:48.294Z,100988.03
2022-11-05T23:51:14.884Z,100973.16
2022-11-05T23:53:41.551Z,100972.72
2022-11-05T23:56:10.562Z,100973.78
2022-11-05T23:58:38.854Z,100966.53
